createdAt,value
2023-02-17T07:36:11.217Z,53.70
2023-02-17T07:38:57.540Z,64.40
2023-02-17T07:41:43.066Z,71.40
2023-02-17T07:44:29.333Z,49.28
2023-02-17T07:47:15.935Z,49.20
2023-02-17T07:50:02.844Z,45.83
2023-02-17T07:52:50.912Z,53.15
2023-02-17T07:55:36.800Z,44.13
2023-02-17T07:58:22.745Z,43.38
2023-02-17T08:01:12.954Z,41.88
2023-02-17T08:03:59.862Z,43.15
2023-02-17T08:06:46.435Z,46.22
2023-02-17T08:09:50.557Z,37.28
2023-02-17T08:12:55.837Z,29.52
2023-02-17T08:15:41.428Z,25.37
2023-02-17T08:18:29.102Z,36.35
2023-02-17T08:21:20.319Z,41.55
2023-02-17T08:24:06.021Z,25.77
2023-02-17T08:26:51.661Z,26.35
2023-02-17T08:29:37.523Z,43.45
2023-02-17T08:32:26.140Z,31.92
2023-02-17T08:35:14.937Z,33.10
2023-02-17T08:38:00.342Z,22.27
2023-02-17T08:40:45.708Z,20.00
2023-02-17T08:43:31.415Z,19.45
2023-02-17T08:46:18.529Z,19.08
2023-02-17T08:49:05.293Z,33.60
2023-02-17T08:51:52.295Z,22.30
2023-02-17T08:54:38.524Z,29.30
2023-02-17T08:57:23.701Z,19.35
2023-02-17T09:00:20.167Z,27.15
2023-02-17T09:03:07.657Z,38.58
2023-02-17T09:05:57.921Z,19.33
2023-02-17T09:08:45.202Z,23.50
2023-02-17T09:11:30.817Z,19.55
2023-02-17T09:14:15.896Z,19.40
2023-02-17T09:17:01.554Z,21.70
2023-02-17T09:19:48.047Z,20.75
2023-02-17T09:22:34.100Z,21.90
2023-02-17T09:25:19.950Z,21.77
2023-02-17T09:28:06.327Z,19.85
2023-02-17T09:30:51.484Z,25.85
2023-02-17T09:33:38.077Z,19.98
2023-02-17T09:36:26.297Z,23.50
2023-02-17T09:39:14.002Z,15.00
2023-02-17T09:41:59.738Z,14.23
2023-02-17T09:44:57.595Z,13.60
2023-02-17T09:47:50.583Z,14.27
2023-02-17T09:50:45.722Z,16.70
2023-02-17T09:53:37.391Z,13.48
2023-02-17T09:56:30.342Z,13.65
2023-02-17T09:59:22.173Z,16.30
2023-02-17T10:02:57.414Z,16.95
2023-02-17T10:09:18.344Z,19.35
2023-02-17T10:12:19.948Z,19.00
2023-02-17T10:19:12.554Z,28.12
2023-02-17T10:25:25.987Z,17.62
2023-02-17T10:28:21.356Z,21.33
2023-02-17T10:32:02.990Z,22.20
2023-02-17T10:34:57.176Z,18.77
2023-02-17T10:37:48.671Z,32.90
2023-02-17T10:40:39.891Z,21.70
2023-02-17T10:43:31.918Z,19.80
2023-02-17T10:47:01.290Z,36.13
2023-02-17T10:54:16.933Z,23.98
2023-02-17T11:01:05.285Z,20.45
2023-02-17T11:04:26.558Z,19.12
2023-02-17T11:07:34.290Z,18.70
2023-02-17T11:15:17.518Z,18.87
2023-02-17T11:18:29.203Z,22.80
2023-02-17T11:24:36.096Z,20.80
2023-02-17T11:27:25.564Z,18.50
2023-02-17T11:30:18.759Z,21.70
2023-02-17T11:33:15.649Z,19.17
2023-02-17T11:36:02.289Z,17.37
2023-02-17T11:38:48.387Z,20.58
2023-02-17T11:41:41.073Z,17.40
2023-02-17T11:44:28.077Z,15.30
2023-02-17T11:47:32.061Z,16.75
2023-02-17T11:50:45.129Z,12.52
2023-02-17T11:53:47.487Z,16.58
2023-02-17T11:56:39.656Z,13.10
2023-02-17T11:59:40.174Z,14.40
2023-02-17T12:02:31.369Z,13.13
2023-02-17T12:05:34.962Z,20.48
2023-02-17T12:08:44.499Z,18.45
2023-02-17T12:11:37.655Z,16.42
2023-02-17T12:14:44.703Z,12.05
2023-02-17T12:17:47.667Z,16.45
2023-02-17T12:20:49.868Z,16.45
2023-02-17T12:24:12.571Z,12.60
2023-02-17T12:27:14.277Z,13.68
2023-02-17T12:30:11.176Z,15.55
2023-02-17T12:33:21.829Z,20.62
2023-02-17T12:36:17.764Z,12.65
2023-02-17T12:39:12.203Z,15.20
2023-02-17T12:42:02.611Z,14.52
